Deo Volente — PHFJ — position and weather

sailwx.info

Track history (hours):
 
Tides and Currents Weather Stations Pressure Air Temp Water Temp Dewpoint Dewpoint Depression Visibility Wind Speed Wind Dir Waves Ship Positions

Deo Volente

Last reported at 2017-Nov-23 08:40 UTC. Time now 2017-Nov-24 07:06 UTC.
Position N 36°49' E 013°28'.

Length 105 m; draft 4.9 m.

Type: Cargo ship. MMSI: 246518000.

Date/timePositionNaut miles runAvg speedWind from/ knotsBaromVisibWave heightAir tempDewpointWater temp
2017-Nov-23 08:40N 36°49' E 013°28'317.0
2017-Nov-23 08:29N 36°46' E 013°31'2217.1
2017-Nov-23 07:13N 36°31' E 013°51'417.0
2017-Nov-23 07:00N 36°29' E 013°54'917.1
2017-Nov-23 06:30N 36°23' E 014°02'917.1
2017-Nov-23 06:00N 36°18' E 014°10'917.2
2017-Nov-23 05:30N 36°12' E 014°18'917.3
2017-Nov-23 05:00N 36°06' E 014°26'816.8
2017-Nov-23 04:30N 35°59' E 014°32'5 1.6
2017-Nov-23 01:04N 35°54' E 014°31'0 5.9
2017-Nov-23 01:00N 35°54' E 014°32'814.9
2017-Nov-23 00:30N 36°01' E 014°37'1117.7
2017-Nov-22 23:53N 36°09' E 014°45'  
Track history (hours):
 
Tides and Currents Weather Stations Pressure Air Temp Water Temp Dewpoint Dewpoint Depression Visibility Wind Speed Wind Dir Waves Ship Positions

Deo Volente

Last reported at 2017-Nov-23 08:40 UTC. Time now 2017-Nov-24 07:06 UTC.
Position N 36°49' E 013°28'.

Length 105 m; draft 4.9 m.

Type: Cargo ship. MMSI: 246518000.

Date/timePositionNaut miles runAvg speedWind from/ knotsBaromVisibWave heightAir tempDewpointWater temp
2017-Nov-23 08:40N 36°49' E 013°28'317.0
2017-Nov-23 08:29N 36°46' E 013°31'2217.1
2017-Nov-23 07:13N 36°31' E 013°51'417.0
2017-Nov-23 07:00N 36°29' E 013°54'917.1
2017-Nov-23 06:30N 36°23' E 014°02'917.1
2017-Nov-23 06:00N 36°18' E 014°10'917.2
2017-Nov-23 05:30N 36°12' E 014°18'917.3
2017-Nov-23 05:00N 36°06' E 014°26'816.8
2017-Nov-23 04:30N 35°59' E 014°32'5 1.6
2017-Nov-23 01:04N 35°54' E 014°31'0 5.9
2017-Nov-23 01:00N 35°54' E 014°32'814.9
2017-Nov-23 00:30N 36°01' E 014°37'1117.7
2017-Nov-22 23:53N 36°09' E 014°45'  

Dump ship's entire track history